sensor_id;sensor_type;location;lat;lon;timestamp;P1;durP1;ratioP1;P2;durP2;ratioP2
10170;SDS011;5127;50.922;6.988;2022-07-03T00:02:04;1.35;;;1.05;;
10170;SDS011;5127;50.922;6.988;2022-07-03T00:04:31;2.00;;;1.15;;
10170;SDS011;5127;50.922;6.988;2022-07-03T00:06:59;1.40;;;1.08;;
10170;SDS011;5127;50.922;6.988;2022-07-03T00:09:26;2.08;;;1.15;;
10170;SDS011;5127;50.922;6.988;2022-07-03T00:11:55;2.92;;;1.20;;
10170;SDS011;5127;50.922;6.988;2022-07-03T00:14:22;1.90;;;1.00;;
10170;SDS011;5127;50.922;6.988;2022-07-03T00:16:49;3.22;;;1.20;;
10170;SDS011;5127;50.922;6.988;2022-07-03T00:19:17;3.22;;;1.10;;
10170;SDS011;5127;50.922;6.988;2022-07-03T00:21:45;1.40;;;1.08;;
10170;SDS011;5127;50.922;6.988;2022-07-03T00:24:19;2.72;;;1.00;;
10170;SDS011;5127;50.922;6.988;2022-07-03T00:26:50;1.42;;;1.05;;
10170;SDS011;5127;50.922;6.988;2022-07-03T00:29:21;1.15;;;1.02;;
10170;SDS011;5127;50.922;6.988;2022-07-03T00:31:52;2.45;;;1.00;;
10170;SDS011;5127;50.922;6.988;2022-07-03T00:34:20;2.67;;;1.30;;
10170;SDS011;5127;50.922;6.988;2022-07-03T00:36:51;1.42;;;1.13;;
10170;SDS011;5127;50.922;6.988;2022-07-03T00:39:19;1.50;;;1.10;;
10170;SDS011;5127;50.922;6.988;2022-07-03T00:41:46;1.25;;;1.15;;
10170;SDS011;5127;50.922;6.988;2022-07-03T00:44:27;1.58;;;1.10;;
10170;SDS011;5127;50.922;6.988;2022-07-03T00:46:56;1.50;;;1.13;;
10170;SDS011;5127;50.922;6.988;2022-07-03T00:49:25;1.70;;;1.20;;
10170;SDS011;5127;50.922;6.988;2022-07-03T00:51:53;1.65;;;1.40;;
10170;SDS011;5127;50.922;6.988;2022-07-03T00:54:23;1.52;;;1.33;;
10170;SDS011;5127;50.922;6.988;2022-07-03T00:56:52;1.90;;;1.20;;
10170;SDS011;5127;50.922;6.988;2022-07-03T00:59:22;2.17;;;1.20;;
10170;SDS011;5127;50.922;6.988;2022-07-03T01:01:51;1.92;;;1.25;;
10170;SDS011;5127;50.922;6.988;2022-07-03T01:04:28;1.77;;;1.67;;
10170;SDS011;5127;50.922;6.988;2022-07-03T01:07:07;4.07;;;1.60;;
10170;SDS011;5127;50.922;6.988;2022-07-03T01:09:43;1.33;;;1.23;;
10170;SDS011;5127;50.922;6.988;2022-07-03T01:12:21;1.17;;;1.08;;
10170;SDS011;5127;50.922;6.988;2022-07-03T01:14:56;1.90;;;1.48;;
10170;SDS011;5127;50.922;6.988;2022-07-03T01:17:34;1.35;;;1.23;;
10170;SDS011;5127;50.922;6.988;2022-07-03T01:20:05;1.40;;;1.20;;
10170;SDS011;5127;50.922;6.988;2022-07-03T01:22:34;1.30;;;1.10;;
10170;SDS011;5127;50.922;6.988;2022-07-03T01:25:08;1.80;;;1.25;;
10170;SDS011;5127;50.922;6.988;2022-07-03T01:27:56;1.77;;;1.25;;
10170;SDS011;5127;50.922;6.988;2022-07-03T01:30:25;3.05;;;1.50;;
10170;SDS011;5127;50.922;6.988;2022-07-03T01:32:57;2.25;;;1.20;;
10170;SDS011;5127;50.922;6.988;2022-07-03T01:35:31;2.38;;;1.67;;
10170;SDS011;5127;50.922;6.988;2022-07-03T01:38:01;2.50;;;1.70;;
10170;SDS011;5127;50.922;6.988;2022-07-03T01:40:31;2.40;;;1.80;;
10170;SDS011;5127;50.922;6.988;2022-07-03T01:43:02;3.55;;;2.33;;
10170;SDS011;5127;50.922;6.988;2022-07-03T01:45:31;2.42;;;1.90;;
10170;SDS011;5127;50.922;6.988;2022-07-03T01:48:00;3.05;;;2.33;;
10170;SDS011;5127;50.922;6.988;2022-07-03T01:50:31;2.30;;;2.00;;
10170;SDS011;5127;50.922;6.988;2022-07-03T01:53:00;2.60;;;2.25;;
10170;SDS011;5127;50.922;6.988;2022-07-03T01:55:32;2.30;;;2.10;;
10170;SDS011;5127;50.922;6.988;2022-07-03T01:58:01;1.92;;;1.60;;
10170;SDS011;5127;50.922;6.988;2022-07-03T02:00:29;4.75;;;2.00;;
10170;SDS011;5127;50.922;6.988;2022-07-03T02:02:57;3.08;;;2.05;;
10170;SDS011;5127;50.922;6.988;2022-07-03T02:11:10;1.60;;;1.50;;
10170;SDS011;5127;50.922;6.988;2022-07-03T02:13:50;2.08;;;1.70;;
10170;SDS011;5127;50.922;6.988;2022-07-03T02:16:19;2.20;;;1.60;;
10170;SDS011;5127;50.922;6.988;2022-07-03T02:18:50;2.10;;;1.80;;
10170;SDS011;5127;50.922;6.988;2022-07-03T02:21:25;2.27;;;1.70;;
10170;SDS011;5127;50.922;6.988;2022-07-03T02:23:55;3.47;;;1.63;;
10170;SDS011;5127;50.922;6.988;2022-07-03T02:26:33;2.15;;;1.50;;
10170;SDS011;5127;50.922;6.988;2022-07-03T02:29:06;1.87;;;1.40;;
10170;SDS011;5127;50.922;6.988;2022-07-03T02:31:37;3.27;;;1.73;;
10170;SDS011;5127;50.922;6.988;2022-07-03T02:34:07;2.83;;;1.63;;
10170;SDS011;5127;50.922;6.988;2022-07-03T02:36:39;1.60;;;1.50;;
10170;SDS011;5127;50.922;6.988;2022-07-03T02:39:11;3.17;;;1.80;;
10170;SDS011;5127;50.922;6.988;2022-07-03T02:41:48;2.00;;;1.80;;
10170;SDS011;5127;50.922;6.988;2022-07-03T02:44:23;2.50;;;1.60;;
10170;SDS011;5127;50.922;6.988;2022-07-03T02:46:57;2.20;;;1.80;;
10170;SDS011;5127;50.922;6.988;2022-07-03T02:49:36;1.93;;;1.50;;
10170;SDS011;5127;50.922;6.988;2022-07-03T02:52:14;4.17;;;1.53;;
10170;SDS011;5127;50.922;6.988;2022-07-03T02:54:50;1.70;;;1.60;;
10170;SDS011;5127;50.922;6.988;2022-07-03T02:57:19;2.40;;;1.77;;
10170;SDS011;5127;50.922;6.988;2022-07-03T02:59:53;1.50;;;1.40;;
10170;SDS011;5127;50.922;6.988;2022-07-03T03:02:36;1.50;;;1.40;;
10170;SDS011;5127;50.922;6.988;2022-07-03T03:05:15;1.67;;;1.37;;
10170;SDS011;5127;50.922;6.988;2022-07-03T03:07:52;3.57;;;1.43;;
10170;SDS011;5127;50.922;6.988;2022-07-03T03:10:26;2.63;;;1.50;;
10170;SDS011;5127;50.922;6.988;2022-07-03T03:12:59;1.60;;;1.50;;
10170;SDS011;5127;50.922;6.988;2022-07-03T03:15:32;1.77;;;1.50;;
10170;SDS011;5127;50.922;6.988;2022-07-03T03:18:02;1.83;;;1.37;;
10170;SDS011;5127;50.922;6.988;2022-07-03T03:20:31;1.97;;;1.50;;
10170;SDS011;5127;50.922;6.988;2022-07-03T03:23:04;2.50;;;1.60;;
10170;SDS011;5127;50.922;6.988;2022-07-03T03:25:36;2.47;;;1.57;;
10170;SDS011;5127;50.922;6.988;2022-07-03T03:28:04;1.90;;;1.70;;
10170;SDS011;5127;50.922;6.988;2022-07-03T03:30:33;2.03;;;1.83;;
10170;SDS011;5127;50.922;6.988;2022-07-03T03:33:01;1.90;;;1.80;;
10170;SDS011;5127;50.922;6.988;2022-07-03T03:35:29;1.90;;;1.60;;
10170;SDS011;5127;50.922;6.988;2022-07-03T03:37:57;2.53;;;1.90;;
10170;SDS011;5127;50.922;6.988;2022-07-03T03:40:24;2.00;;;1.57;;
10170;SDS011;5127;50.922;6.988;2022-07-03T03:42:51;2.00;;;1.80;;
10170;SDS011;5127;50.922;6.988;2022-07-03T03:45:18;3.30;;;1.73;;
10170;SDS011;5127;50.922;6.988;2022-07-03T03:47:47;3.57;;;1.60;;
10170;SDS011;5127;50.922;6.988;2022-07-03T03:50:15;2.33;;;1.50;;
10170;SDS011;5127;50.922;6.988;2022-07-03T03:52:42;1.73;;;1.60;;
10170;SDS011;5127;50.922;6.988;2022-07-03T03:55:10;1.47;;;1.37;;
10170;SDS011;5127;50.922;6.988;2022-07-03T03:57:37;1.97;;;1.53;;
10170;SDS011;5127;50.922;6.988;2022-07-03T04:00:05;1.90;;;1.40;;
10170;SDS011;5127;50.922;6.988;2022-07-03T04:02:39;1.53;;;1.43;;
10170;SDS011;5127;50.922;6.988;2022-07-03T04:05:08;4.23;;;1.43;;
10170;SDS011;5127;50.922;6.988;2022-07-03T04:07:35;1.93;;;1.47;;
10170;SDS011;5127;50.922;6.988;2022-07-03T04:10:02;2.93;;;1.50;;
10170;SDS011;5127;50.922;6.988;2022-07-03T04:12:30;2.63;;;1.60;;
10170;SDS011;5127;50.922;6.988;2022-07-03T04:14:57;3.43;;;1.50;;
10170;SDS011;5127;50.922;6.988;2022-07-03T04:17:25;1.50;;;1.40;;
10170;SDS011;5127;50.922;6.988;2022-07-03T04:19:53;2.00;;;1.77;;
10170;SDS011;5127;50.922;6.988;2022-07-03T04:22:21;2.03;;;1.50;;
10170;SDS011;5127;50.922;6.988;2022-07-03T04:24:48;2.47;;;1.57;;
10170;SDS011;5127;50.922;6.988;2022-07-03T04:27:16;4.80;;;1.40;;
10170;SDS011;5127;50.922;6.988;2022-07-03T04:29:43;1.57;;;1.40;;
10170;SDS011;5127;50.922;6.988;2022-07-03T04:32:10;1.27;;;1.17;;
10170;SDS011;5127;50.922;6.988;2022-07-03T04:34:38;2.00;;;1.50;;
10170;SDS011;5127;50.922;6.988;2022-07-03T04:37:05;1.40;;;1.30;;
10170;SDS011;5127;50.922;6.988;2022-07-03T04:39:34;1.53;;;1.43;;
10170;SDS011;5127;50.922;6.988;2022-07-03T04:42:01;2.07;;;1.70;;
10170;SDS011;5127;50.922;6.988;2022-07-03T04:44:28;1.73;;;1.60;;
10170;SDS011;5127;50.922;6.988;2022-07-03T04:46:55;1.60;;;1.50;;
10170;SDS011;5127;50.922;6.988;2022-07-03T04:49:22;2.37;;;1.33;;
10170;SDS011;5127;50.922;6.988;2022-07-03T04:51:50;3.77;;;1.57;;
10170;SDS011;5127;50.922;6.988;2022-07-03T04:54:18;3.23;;;1.30;;
10170;SDS011;5127;50.922;6.988;2022-07-03T04:56:46;1.87;;;1.37;;
10170;SDS011;5127;50.922;6.988;2022-07-03T04:59:14;2.47;;;1.20;;
10170;SDS011;5127;50.922;6.988;2022-07-03T05:01:41;2.87;;;1.33;;
10170;SDS011;5127;50.922;6.988;2022-07-03T05:04:08;1.30;;;1.20;;
10170;SDS011;5127;50.922;6.988;2022-07-03T05:06:35;1.58;;;1.13;;
10170;SDS011;5127;50.922;6.988;2022-07-03T05:09:03;1.50;;;1.33;;
10170;SDS011;5127;50.922;6.988;2022-07-03T05:11:30;1.60;;;1.40;;
10170;SDS011;5127;50.922;6.988;2022-07-03T05:13:58;1.67;;;0.97;;
10170;SDS011;5127;50.922;6.988;2022-07-03T05:16:26;2.00;;;1.27;;
10170;SDS011;5127;50.922;6.988;2022-07-03T05:18:53;2.37;;;1.53;;
10170;SDS011;5127;50.922;6.988;2022-07-03T05:21:20;1.50;;;1.40;;
10170;SDS011;5127;50.922;6.988;2022-07-03T05:23:48;2.77;;;1.43;;
10170;SDS011;5127;50.922;6.988;2022-07-03T05:26:15;4.07;;;1.70;;
10170;SDS011;5127;50.922;6.988;2022-07-03T05:28:42;1.67;;;1.30;;
10170;SDS011;5127;50.922;6.988;2022-07-03T05:31:11;1.90;;;1.47;;
10170;SDS011;5127;50.922;6.988;2022-07-03T05:33:38;1.80;;;1.27;;
10170;SDS011;5127;50.922;6.988;2022-07-03T05:36:06;3.95;;;1.42;;
10170;SDS011;5127;50.922;6.988;2022-07-03T05:38:33;1.38;;;1.27;;
10170;SDS011;5127;50.922;6.988;2022-07-03T05:41:18;2.10;;;1.45;;
10170;SDS011;5127;50.922;6.988;2022-07-03T05:43:45;2.38;;;1.38;;
10170;SDS011;5127;50.922;6.988;2022-07-03T05:46:14;1.87;;;1.43;;
10170;SDS011;5127;50.922;6.988;2022-07-03T05:48:41;1.98;;;1.40;;
10170;SDS011;5127;50.922;6.988;2022-07-03T05:51:08;1.98;;;1.40;;
10170;SDS011;5127;50.922;6.988;2022-07-03T05:53:36;2.28;;;1.15;;
10170;SDS011;5127;50.922;6.988;2022-07-03T05:56:03;2.83;;;1.50;;
10170;SDS011;5127;50.922;6.988;2022-07-03T05:58:30;1.67;;;1.33;;
10170;SDS011;5127;50.922;6.988;2022-07-03T06:00:58;2.03;;;1.50;;
10170;SDS011;5127;50.922;6.988;2022-07-03T06:03:26;2.10;;;1.30;;
10170;SDS011;5127;50.922;6.988;2022-07-03T06:05:53;1.85;;;1.35;;
10170;SDS011;5127;50.922;6.988;2022-07-03T06:08:21;2.53;;;1.50;;
10170;SDS011;5127;50.922;6.988;2022-07-03T06:10:48;1.38;;;1.25;;
10170;SDS011;5127;50.922;6.988;2022-07-03T06:13:15;1.55;;;1.25;;
10170;SDS011;5127;50.922;6.988;2022-07-03T06:15:43;4.10;;;1.60;;
10170;SDS011;5127;50.922;6.988;2022-07-03T06:18:10;1.75;;;1.60;;
10170;SDS011;5127;50.922;6.988;2022-07-03T06:20:39;1.83;;;1.38;;
10170;SDS011;5127;50.922;6.988;2022-07-03T06:23:06;2.78;;;1.27;;
10170;SDS011;5127;50.922;6.988;2022-07-03T06:25:33;1.40;;;1.00;;
10170;SDS011;5127;50.922;6.988;2022-07-03T06:28:01;1.73;;;1.10;;
10170;SDS011;5127;50.922;6.988;2022-07-03T06:30:28;2.33;;;1.05;;
10170;SDS011;5127;50.922;6.988;2022-07-03T06:32:55;2.90;;;1.10;;
10170;SDS011;5127;50.922;6.988;2022-07-03T06:35:23;1.67;;;1.13;;
10170;SDS011;5127;50.922;6.988;2022-07-03T06:37:51;1.33;;;1.20;;
10170;SDS011;5127;50.922;6.988;2022-07-03T06:40:19;1.58;;;1.10;;
10170;SDS011;5127;50.922;6.988;2022-07-03T06:42:46;2.05;;;0.98;;
10170;SDS011;5127;50.922;6.988;2022-07-03T06:45:13;2.80;;;1.30;;
10170;SDS011;5127;50.922;6.988;2022-07-03T06:47:41;1.67;;;1.20;;
10170;SDS011;5127;50.922;6.988;2022-07-03T06:50:08;2.08;;;1.17;;
10170;SDS011;5127;50.922;6.988;2022-07-03T06:52:35;2.50;;;1.20;;
10170;SDS011;5127;50.922;6.988;2022-07-03T06:55:05;1.30;;;1.20;;
10170;SDS011;5127;50.922;6.988;2022-07-03T06:57:33;2.03;;;1.10;;
10170;SDS011;5127;50.922;6.988;2022-07-03T07:00:00;2.88;;;1.35;;
10170;SDS011;5127;50.922;6.988;2022-07-03T07:02:27;4.47;;;1.33;;
10170;SDS011;5127;50.922;6.988;2022-07-03T07:04:54;1.95;;;1.40;;
10170;SDS011;5127;50.922;6.988;2022-07-03T07:07:22;1.42;;;1.13;;
10170;SDS011;5127;50.922;6.988;2022-07-03T07:09:49;2.58;;;1.15;;
10170;SDS011;5127;50.922;6.988;2022-07-03T07:12:17;2.63;;;1.23;;
10170;SDS011;5127;50.922;6.988;2022-07-03T07:14:45;2.85;;;1.30;;
10170;SDS011;5127;50.922;6.988;2022-07-03T07:17:12;1.92;;;1.10;;
10170;SDS011;5127;50.922;6.988;2022-07-03T07:19:40;1.92;;;1.20;;
10170;SDS011;5127;50.922;6.988;2022-07-03T07:22:07;2.55;;;1.20;;
10170;SDS011;5127;50.922;6.988;2022-07-03T07:24:34;1.20;;;1.10;;
10170;SDS011;5127;50.922;6.988;2022-07-03T07:27:01;2.95;;;1.30;;
10170;SDS011;5127;50.922;6.988;2022-07-03T07:29:30;1.40;;;1.17;;
10170;SDS011;5127;50.922;6.988;2022-07-03T07:31:57;1.67;;;1.42;;
10170;SDS011;5127;50.922;6.988;2022-07-03T07:34:25;2.17;;;1.20;;
10170;SDS011;5127;50.922;6.988;2022-07-03T07:36:52;2.72;;;1.30;;
10170;SDS011;5127;50.922;6.988;2022-07-03T07:39:19;2.10;;;1.10;;
10170;SDS011;5127;50.922;6.988;2022-07-03T07:41:46;2.30;;;1.15;;
10170;SDS011;5127;50.922;6.988;2022-07-03T07:44:13;1.80;;;1.30;;
10170;SDS011;5127;50.922;6.988;2022-07-03T07:46:42;2.70;;;1.50;;
10170;SDS011;5127;50.922;6.988;2022-07-03T07:49:09;2.53;;;1.30;;
10170;SDS011;5127;50.922;6.988;2022-07-03T07:51:36;1.40;;;1.30;;
10170;SDS011;5127;50.922;6.988;2022-07-03T07:54:04;2.47;;;1.35;;
10170;SDS011;5127;50.922;6.988;2022-07-03T07:56:31;3.17;;;1.10;;
10170;SDS011;5127;50.922;6.988;2022-07-03T07:58:58;1.65;;;1.02;;
10170;SDS011;5127;50.922;6.988;2022-07-03T08:01:26;2.38;;;1.42;;
10170;SDS011;5127;50.922;6.988;2022-07-03T08:04:12;1.30;;;1.10;;
10170;SDS011;5127;50.922;6.988;2022-07-03T08:06:57;2.13;;;1.20;;
10170;SDS011;5127;50.922;6.988;2022-07-03T08:09:24;1.65;;;1.17;;
10170;SDS011;5127;50.922;6.988;2022-07-03T08:11:51;2.15;;;1.17;;
10170;SDS011;5127;50.922;6.988;2022-07-03T08:14:18;1.77;;;1.20;;
10170;SDS011;5127;50.922;6.988;2022-07-03T08:16:46;2.78;;;1.35;;
10170;SDS011;5127;50.922;6.988;2022-07-03T08:19:14;1.80;;;1.40;;
10170;SDS011;5127;50.922;6.988;2022-07-03T08:21:41;4.22;;;1.40;;
10170;SDS011;5127;50.922;6.988;2022-07-03T08:24:09;2.22;;;1.17;;
10170;SDS011;5127;50.922;6.988;2022-07-03T08:26:38;2.50;;;1.30;;
10170;SDS011;5127;50.922;6.988;2022-07-03T08:29:05;1.80;;;1.30;;
10170;SDS011;5127;50.922;6.988;2022-07-03T08:31:32;3.15;;;1.33;;
10170;SDS011;5127;50.922;6.988;2022-07-03T08:34:00;1.83;;;1.38;;
10170;SDS011;5127;50.922;6.988;2022-07-03T08:36:28;1.55;;;1.25;;
10170;SDS011;5127;50.922;6.988;2022-07-03T08:38:55;2.03;;;1.30;;
10170;SDS011;5127;50.922;6.988;2022-07-03T08:41:25;3.00;;;1.58;;
10170;SDS011;5127;50.922;6.988;2022-07-03T08:43:53;1.65;;;1.40;;
10170;SDS011;5127;50.922;6.988;2022-07-03T08:46:21;3.53;;;1.50;;
10170;SDS011;5127;50.922;6.988;2022-07-03T08:48:49;1.30;;;1.20;;
10170;SDS011;5127;50.922;6.988;2022-07-03T08:51:16;1.52;;;1.40;;
10170;SDS011;5127;50.922;6.988;2022-07-03T08:53:48;2.50;;;1.30;;
10170;SDS011;5127;50.922;6.988;2022-07-03T08:56:16;1.65;;;1.25;;
10170;SDS011;5127;50.922;6.988;2022-07-03T08:58:44;2.25;;;1.27;;
10170;SDS011;5127;50.922;6.988;2022-07-03T09:01:13;2.30;;;1.08;;
10170;SDS011;5127;50.922;6.988;2022-07-03T09:03:42;1.08;;;1.00;;
10170;SDS011;5127;50.922;6.988;2022-07-03T09:06:11;1.20;;;0.90;;
10170;SDS011;5127;50.922;6.988;2022-07-03T09:08:39;1.10;;;1.00;;
10170;SDS011;5127;50.922;6.988;2022-07-03T09:11:08;1.83;;;1.00;;
10170;SDS011;5127;50.922;6.988;2022-07-03T09:13:37;2.28;;;1.10;;
10170;SDS011;5127;50.922;6.988;2022-07-03T09:16:04;1.15;;;1.02;;
10170;SDS011;5127;50.922;6.988;2022-07-03T09:18:38;1.25;;;1.15;;
10170;SDS011;5127;50.922;6.988;2022-07-03T09:21:06;1.15;;;0.93;;
10170;SDS011;5127;50.922;6.988;2022-07-03T09:23:35;1.42;;;1.00;;
10170;SDS011;5127;50.922;6.988;2022-07-03T09:26:04;1.92;;;1.05;;
10170;SDS011;5127;50.922;6.988;2022-07-03T09:28:43;1.33;;;1.00;;
10170;SDS011;5127;50.922;6.988;2022-07-03T09:31:13;0.77;;;0.70;;
10170;SDS011;5127;50.922;6.988;2022-07-03T09:33:54;1.42;;;0.90;;
10170;SDS011;5127;50.922;6.988;2022-07-03T09:36:23;1.67;;;0.90;;
10170;SDS011;5127;50.922;6.988;2022-07-03T09:39:15;3.53;;;0.90;;
10170;SDS011;5127;50.922;6.988;2022-07-03T09:41:52;1.83;;;1.00;;
10170;SDS011;5127;50.922;6.988;2022-07-03T09:44:32;1.15;;;0.93;;
10170;SDS011;5127;50.922;6.988;2022-07-03T09:47:11;1.15;;;1.00;;
10170;SDS011;5127;50.922;6.988;2022-07-03T09:49:47;1.70;;;1.20;;
10170;SDS011;5127;50.922;6.988;2022-07-03T09:52:26;1.65;;;0.95;;
10170;SDS011;5127;50.922;6.988;2022-07-03T09:54:55;1.38;;;0.85;;
10170;SDS011;5127;50.922;6.988;2022-07-03T09:57:23;1.35;;;0.70;;
10170;SDS011;5127;50.922;6.988;2022-07-03T09:59:58;1.23;;;1.00;;
10170;SDS011;5127;50.922;6.988;2022-07-03T10:02:37;0.75;;;0.60;;
10170;SDS011;5127;50.922;6.988;2022-07-03T10:05:19;0.88;;;0.82;;
10170;SDS011;5127;50.922;6.988;2022-07-03T10:07:50;0.70;;;0.70;;
10170;SDS011;5127;50.922;6.988;2022-07-03T10:10:19;0.75;;;0.73;;
10170;SDS011;5127;50.922;6.988;2022-07-03T10:12:48;1.25;;;0.80;;
10170;SDS011;5127;50.922;6.988;2022-07-03T10:15:18;0.93;;;0.80;;
10170;SDS011;5127;50.922;6.988;2022-07-03T10:17:47;0.75;;;0.75;;
10170;SDS011;5127;50.922;6.988;2022-07-03T10:20:19;1.10;;;0.95;;
10170;SDS011;5127;50.922;6.988;2022-07-03T10:22:50;0.82;;;0.75;;
10170;SDS011;5127;50.922;6.988;2022-07-03T10:25:17;1.65;;;1.10;;
10170;SDS011;5127;50.922;6.988;2022-07-03T10:27:45;1.40;;;1.10;;
10170;SDS011;5127;50.922;6.988;2022-07-03T10:30:13;1.88;;;1.02;;
10170;SDS011;5127;50.922;6.988;2022-07-03T10:32:45;2.63;;;1.20;;
10170;SDS011;5127;50.922;6.988;2022-07-03T10:35:13;1.25;;;0.80;;
10170;SDS011;5127;50.922;6.988;2022-07-03T10:37:56;1.50;;;1.20;;
10170;SDS011;5127;50.922;6.988;2022-07-03T10:40:38;1.70;;;1.02;;
10170;SDS011;5127;50.922;6.988;2022-07-03T10:43:27;1.13;;;0.80;;
10170;SDS011;5127;50.922;6.988;2022-07-03T10:46:13;0.82;;;0.80;;
10170;SDS011;5127;50.922;6.988;2022-07-03T10:51:50;1.60;;;1.02;;
10170;SDS011;5127;50.922;6.988;2022-07-03T10:54:19;1.73;;;0.93;;
10170;SDS011;5127;50.922;6.988;2022-07-03T10:59:59;1.10;;;0.88;;
10170;SDS011;5127;50.922;6.988;2022-07-03T11:02:28;1.15;;;0.80;;
10170;SDS011;5127;50.922;6.988;2022-07-03T11:05:04;0.90;;;0.75;;
10170;SDS011;5127;50.922;6.988;2022-07-03T11:07:44;1.95;;;1.00;;
10170;SDS011;5127;50.922;6.988;2022-07-03T11:10:37;1.67;;;1.10;;
10170;SDS011;5127;50.922;6.988;2022-07-03T11:13:12;0.88;;;0.88;;
10170;SDS011;5127;50.922;6.988;2022-07-03T11:15:47;2.72;;;1.10;;
10170;SDS011;5127;50.922;6.988;2022-07-03T11:18:17;1.13;;;0.85;;
10170;SDS011;5127;50.922;6.988;2022-07-03T11:21:06;1.10;;;1.00;;
10170;SDS011;5127;50.922;6.988;2022-07-03T11:26:41;2.30;;;1.02;;
10170;SDS011;5127;50.922;6.988;2022-07-03T11:29:24;1.50;;;1.00;;
10170;SDS011;5127;50.922;6.988;2022-07-03T11:31:53;1.20;;;1.10;;
10170;SDS011;5127;50.922;6.988;2022-07-03T11:34:20;1.20;;;0.95;;
10170;SDS011;5127;50.922;6.988;2022-07-03T11:36:49;1.33;;;1.00;;
10170;SDS011;5127;50.922;6.988;2022-07-03T11:39:18;1.42;;;1.20;;
10170;SDS011;5127;50.922;6.988;2022-07-03T11:41:46;1.98;;;1.33;;
10170;SDS011;5127;50.922;6.988;2022-07-03T11:44:15;1.35;;;1.02;;
10170;SDS011;5127;50.922;6.988;2022-07-03T11:46:48;1.27;;;1.00;;
10170;SDS011;5127;50.922;6.988;2022-07-03T11:49:20;1.65;;;1.10;;
10170;SDS011;5127;50.922;6.988;2022-07-03T11:51:55;2.03;;;0.98;;
10170;SDS011;5127;50.922;6.988;2022-07-03T11:54:24;1.52;;;0.70;;
10170;SDS011;5127;50.922;6.988;2022-07-03T11:56:51;1.27;;;0.98;;
10170;SDS011;5127;50.922;6.988;2022-07-03T11:59:19;1.60;;;1.02;;
10170;SDS011;5127;50.922;6.988;2022-07-03T12:01:46;1.10;;;0.95;;
10170;SDS011;5127;50.922;6.988;2022-07-03T12:04:14;1.25;;;1.00;;
10170;SDS011;5127;50.922;6.988;2022-07-03T12:06:44;1.85;;;1.00;;
10170;SDS011;5127;50.922;6.988;2022-07-03T12:09:20;1.60;;;0.90;;
10170;SDS011;5127;50.922;6.988;2022-07-03T12:11:58;1.73;;;1.17;;
10170;SDS011;5127;50.922;6.988;2022-07-03T12:14:33;1.08;;;0.98;;
10170;SDS011;5127;50.922;6.988;2022-07-03T12:17:01;2.30;;;1.13;;
10170;SDS011;5127;50.922;6.988;2022-07-03T12:19:28;1.52;;;1.00;;
10170;SDS011;5127;50.922;6.988;2022-07-03T12:21:56;1.83;;;0.90;;
10170;SDS011;5127;50.922;6.988;2022-07-03T12:24:24;1.17;;;0.95;;
10170;SDS011;5127;50.922;6.988;2022-07-03T12:26:52;1.73;;;0.90;;
10170;SDS011;5127;50.922;6.988;2022-07-03T12:29:19;2.05;;;0.90;;
10170;SDS011;5127;50.922;6.988;2022-07-03T12:31:48;1.00;;;0.88;;
10170;SDS011;5127;50.922;6.988;2022-07-03T12:34:16;1.63;;;0.90;;
10170;SDS011;5127;50.922;6.988;2022-07-03T12:36:53;2.38;;;0.90;;
10170;SDS011;5127;50.922;6.988;2022-07-03T12:39:22;1.02;;;0.88;;
10170;SDS011;5127;50.922;6.988;2022-07-03T12:41:50;1.60;;;0.88;;
10170;SDS011;5127;50.922;6.988;2022-07-03T12:44:18;1.38;;;0.85;;
10170;SDS011;5127;50.922;6.988;2022-07-03T12:46:46;1.23;;;0.85;;
10170;SDS011;5127;50.922;6.988;2022-07-03T12:49:15;1.08;;;0.90;;
10170;SDS011;5127;50.922;6.988;2022-07-03T12:51:43;2.22;;;1.83;;
10170;SDS011;5127;50.922;6.988;2022-07-03T12:54:12;1.20;;;1.10;;
10170;SDS011;5127;50.922;6.988;2022-07-03T12:56:40;2.08;;;1.05;;
10170;SDS011;5127;50.922;6.988;2022-07-03T13:02:02;1.35;;;1.23;;
10170;SDS011;5127;50.922;6.988;2022-07-03T13:04:31;3.28;;;1.33;;
10170;SDS011;5127;50.922;6.988;2022-07-03T13:07:00;1.40;;;1.00;;
10170;SDS011;5127;50.922;6.988;2022-07-03T13:09:28;1.08;;;0.90;;
10170;SDS011;5127;50.922;6.988;2022-07-03T13:11:55;3.53;;;3.03;;
10170;SDS011;5127;50.922;6.988;2022-07-03T13:14:23;1.90;;;1.30;;
10170;SDS011;5127;50.922;6.988;2022-07-03T13:16:51;2.65;;;1.20;;
10170;SDS011;5127;50.922;6.988;2022-07-03T13:19:21;1.00;;;0.90;;
10170;SDS011;5127;50.922;6.988;2022-07-03T13:21:52;4.85;;;2.35;;
10170;SDS011;5127;50.922;6.988;2022-07-03T13:24:20;2.25;;;1.15;;
10170;SDS011;5127;50.922;6.988;2022-07-03T13:26:49;1.10;;;0.80;;
10170;SDS011;5127;50.922;6.988;2022-07-03T13:29:17;0.95;;;0.75;;
10170;SDS011;5127;50.922;6.988;2022-07-03T13:31:45;1.77;;;0.70;;
10170;SDS011;5127;50.922;6.988;2022-07-03T13:34:12;0.82;;;0.73;;
10170;SDS011;5127;50.922;6.988;2022-07-03T13:36:41;1.55;;;0.90;;
10170;SDS011;5127;50.922;6.988;2022-07-03T13:39:09;1.20;;;0.80;;
10170;SDS011;5127;50.922;6.988;2022-07-03T13:41:36;1.90;;;0.65;;
10170;SDS011;5127;50.922;6.988;2022-07-03T13:44:04;0.57;;;0.55;;
10170;SDS011;5127;50.922;6.988;2022-07-03T13:46:31;1.50;;;0.90;;
10170;SDS011;5127;50.922;6.988;2022-07-03T13:48:58;1.25;;;0.90;;
10170;SDS011;5127;50.922;6.988;2022-07-03T13:51:26;2.22;;;1.00;;
10170;SDS011;5127;50.922;6.988;2022-07-03T13:53:54;1.05;;;0.90;;
10170;SDS011;5127;50.922;6.988;2022-07-03T13:56:22;1.80;;;1.00;;
10170;SDS011;5127;50.922;6.988;2022-07-03T13:58:50;2.42;;;0.90;;
10170;SDS011;5127;50.922;6.988;2022-07-03T14:01:17;2.13;;;0.80;;
10170;SDS011;5127;50.922;6.988;2022-07-03T14:03:45;1.13;;;0.70;;
10170;SDS011;5127;50.922;6.988;2022-07-03T14:06:13;0.70;;;0.70;;
10170;SDS011;5127;50.922;6.988;2022-07-03T14:08:40;0.70;;;0.70;;
10170;SDS011;5127;50.922;6.988;2022-07-03T14:11:09;1.10;;;1.00;;
10170;SDS011;5127;50.922;6.988;2022-07-03T14:13:36;1.38;;;0.80;;
10170;SDS011;5127;50.922;6.988;2022-07-03T14:16:04;1.05;;;0.90;;
10170;SDS011;5127;50.922;6.988;2022-07-03T14:18:31;0.90;;;0.90;;
10170;SDS011;5127;50.922;6.988;2022-07-03T14:20:58;1.05;;;0.73;;
10170;SDS011;5127;50.922;6.988;2022-07-03T14:23:26;2.30;;;1.15;;
10170;SDS011;5127;50.922;6.988;2022-07-03T14:25:55;1.35;;;1.00;;
10170;SDS011;5127;50.922;6.988;2022-07-03T14:28:24;2.28;;;2.00;;
10170;SDS011;5127;50.922;6.988;2022-07-03T14:31:09;2.08;;;1.30;;
10170;SDS011;5127;50.922;6.988;2022-07-03T14:33:55;1.65;;;0.80;;
10170;SDS011;5127;50.922;6.988;2022-07-03T14:36:22;0.70;;;0.70;;
10170;SDS011;5127;50.922;6.988;2022-07-03T14:38:50;0.98;;;0.85;;
10170;SDS011;5127;50.922;6.988;2022-07-03T14:41:17;1.27;;;0.70;;
10170;SDS011;5127;50.922;6.988;2022-07-03T14:43:46;1.17;;;0.80;;
10170;SDS011;5127;50.922;6.988;2022-07-03T14:46:14;6.07;;;3.45;;
10170;SDS011;5127;50.922;6.988;2022-07-03T14:48:41;3.00;;;2.30;;
10170;SDS011;5127;50.922;6.988;2022-07-03T14:51:08;2.15;;;1.95;;
10170;SDS011;5127;50.922;6.988;2022-07-03T14:53:36;2.45;;;1.02;;
10170;SDS011;5127;50.922;6.988;2022-07-03T14:56:03;0.80;;;0.80;;
10170;SDS011;5127;50.922;6.988;2022-07-03T14:58:32;1.25;;;1.13;;
10170;SDS011;5127;50.922;6.988;2022-07-03T15:01:00;1.08;;;0.90;;
10170;SDS011;5127;50.922;6.988;2022-07-03T15:03:33;0.80;;;0.80;;
10170;SDS011;5127;50.922;6.988;2022-07-03T15:06:01;1.25;;;1.00;;
10170;SDS011;5127;50.922;6.988;2022-07-03T15:08:42;1.10;;;0.98;;
10170;SDS011;5127;50.922;6.988;2022-07-03T15:11:15;1.38;;;1.10;;
10170;SDS011;5127;50.922;6.988;2022-07-03T15:14:01;1.48;;;1.10;;
10170;SDS011;5127;50.922;6.988;2022-07-03T15:16:32;1.52;;;0.98;;
10170;SDS011;5127;50.922;6.988;2022-07-03T15:19:00;1.23;;;0.90;;
10170;SDS011;5127;50.922;6.988;2022-07-03T15:21:29;1.63;;;0.90;;
10170;SDS011;5127;50.922;6.988;2022-07-03T15:24:01;1.77;;;0.80;;
10170;SDS011;5127;50.922;6.988;2022-07-03T15:26:32;2.75;;;0.95;;
10170;SDS011;5127;50.922;6.988;2022-07-03T15:29:01;2.22;;;0.90;;
10170;SDS011;5127;50.922;6.988;2022-07-03T15:31:35;1.73;;;1.40;;
10170;SDS011;5127;50.922;6.988;2022-07-03T15:34:04;1.77;;;1.33;;
10170;SDS011;5127;50.922;6.988;2022-07-03T15:36:35;1.92;;;1.30;;